sensor_id;sensor_type;location;lat;lon;timestamp;pressure;altitude;pressure_sealevel;temperature;humidity
17072;BME280;7731;50.720;6.912;2022-11-25T00:00:46;99726.59;;;7.06;100.00
17072;BME280;7731;50.720;6.912;2022-11-25T00:03:19;99723.91;;;7.09;100.00
17072;BME280;7731;50.720;6.912;2022-11-25T00:05:52;99730.03;;;7.05;100.00
17072;BME280;7731;50.720;6.912;2022-11-25T00:08:34;99728.63;;;6.97;100.00
17072;BME280;7731;50.720;6.912;2022-11-25T00:11:07;99728.41;;;6.82;100.00
17072;BME280;7731;50.720;6.912;2022-11-25T00:13:41;99722.63;;;6.78;100.00
17072;BME280;7731;50.720;6.912;2022-11-25T00:16:18;99729.28;;;6.60;100.00
17072;BME280;7731;50.720;6.912;2022-11-25T00:18:58;99723.22;;;6.63;100.00
17072;BME280;7731;50.720;6.912;2022-11-25T00:21:32;99714.25;;;6.74;100.00
17072;BME280;7731;50.720;6.912;2022-11-25T00:24:06;99711.84;;;6.71;100.00
17072;BME280;7731;50.720;6.912;2022-11-25T00:26:37;99707.09;;;6.83;100.00
17072;BME280;7731;50.720;6.912;2022-11-25T00:29:11;99705.38;;;6.83;100.00
17072;BME280;7731;50.720;6.912;2022-11-25T00:31:41;99706.34;;;6.81;100.00
17072;BME280;7731;50.720;6.912;2022-11-25T00:34:16;99704.56;;;6.83;100.00
17072;BME280;7731;50.720;6.912;2022-11-25T00:36:47;99697.22;;;6.75;100.00
17072;BME280;7731;50.720;6.912;2022-11-25T00:39:20;99688.59;;;6.77;100.00
17072;BME280;7731;50.720;6.912;2022-11-25T00:41:51;99686.38;;;6.70;100.00
17072;BME280;7731;50.720;6.912;2022-11-25T00:44:34;99678.31;;;6.79;100.00
17072;BME280;7731;50.720;6.912;2022-11-25T00:47:14;99679.84;;;6.83;100.00
17072;BME280;7731;50.720;6.912;2022-11-25T00:49:49;99683.50;;;6.77;100.00
17072;BME280;7731;50.720;6.912;2022-11-25T00:52:23;99692.34;;;6.69;100.00
17072;BME280;7731;50.720;6.912;2022-11-25T00:54:54;99693.28;;;6.66;100.00
17072;BME280;7731;50.720;6.912;2022-11-25T00:57:28;99692.47;;;6.66;100.00
17072;BME280;7731;50.720;6.912;2022-11-25T00:59:58;99697.00;;;6.59;100.00
17072;BME280;7731;50.720;6.912;2022-11-25T01:02:32;99691.84;;;6.60;100.00
17072;BME280;7731;50.720;6.912;2022-11-25T01:05:15;99683.09;;;6.66;100.00
17072;BME280;7731;50.720;6.912;2022-11-25T01:07:45;99681.56;;;6.62;100.00
17072;BME280;7731;50.720;6.912;2022-11-25T01:10:17;99685.13;;;6.58;100.00
17072;BME280;7731;50.720;6.912;2022-11-25T01:12:47;99689.78;;;6.48;100.00
17072;BME280;7731;50.720;6.912;2022-11-25T01:15:17;99694.94;;;6.47;100.00
17072;BME280;7731;50.720;6.912;2022-11-25T01:17:47;99689.53;;;6.54;100.00
17072;BME280;7731;50.720;6.912;2022-11-25T01:20:21;99687.09;;;6.51;100.00
17072;BME280;7731;50.720;6.912;2022-11-25T01:22:53;99691.31;;;6.52;100.00
17072;BME280;7731;50.720;6.912;2022-11-25T01:25:23;99689.09;;;6.65;100.00
17072;BME280;7731;50.720;6.912;2022-11-25T01:27:53;99685.44;;;6.71;100.00
17072;BME280;7731;50.720;6.912;2022-11-25T01:30:24;99686.25;;;6.73;100.00
17072;BME280;7731;50.720;6.912;2022-11-25T01:32:55;99687.00;;;6.75;100.00
17072;BME280;7731;50.720;6.912;2022-11-25T01:35:28;99685.72;;;6.85;100.00
17072;BME280;7731;50.720;6.912;2022-11-25T01:38:02;99675.47;;;6.87;100.00
17072;BME280;7731;50.720;6.912;2022-11-25T01:40:32;99669.00;;;6.78;100.00
17072;BME280;7731;50.720;6.912;2022-11-25T01:43:02;99674.09;;;6.78;100.00
17072;BME280;7731;50.720;6.912;2022-11-25T01:45:42;99667.00;;;6.85;100.00
17072;BME280;7731;50.720;6.912;2022-11-25T01:48:19;99658.34;;;6.89;100.00
17072;BME280;7731;50.720;6.912;2022-11-25T01:50:56;99669.84;;;6.99;100.00
17072;BME280;7731;50.720;6.912;2022-11-25T01:53:26;99656.75;;;7.07;100.00
17072;BME280;7731;50.720;6.912;2022-11-25T01:56:01;99667.38;;;7.17;100.00
17072;BME280;7731;50.720;6.912;2022-11-25T01:58:47;99658.69;;;7.21;100.00
17072;BME280;7731;50.720;6.912;2022-11-25T02:01:19;99655.88;;;7.46;100.00
17072;BME280;7731;50.720;6.912;2022-11-25T02:03:57;99652.84;;;7.38;100.00
17072;BME280;7731;50.720;6.912;2022-11-25T02:06:41;99649.81;;;7.48;100.00
17072;BME280;7731;50.720;6.912;2022-11-25T02:09:17;99660.78;;;7.50;100.00
17072;BME280;7731;50.720;6.912;2022-11-25T02:11:50;99653.59;;;7.40;100.00
17072;BME280;7731;50.720;6.912;2022-11-25T02:14:23;99644.78;;;7.47;100.00
17072;BME280;7731;50.720;6.912;2022-11-25T02:16:55;99646.72;;;7.42;100.00
17072;BME280;7731;50.720;6.912;2022-11-25T02:19:42;99638.84;;;7.46;100.00
17072;BME280;7731;50.720;6.912;2022-11-25T02:22:26;99645.06;;;7.41;100.00
17072;BME280;7731;50.720;6.912;2022-11-25T02:25:12;99636.63;;;7.39;100.00
17072;BME280;7731;50.720;6.912;2022-11-25T02:27:49;99630.25;;;7.47;100.00
17072;BME280;7731;50.720;6.912;2022-11-25T02:30:20;99628.16;;;7.57;100.00
17072;BME280;7731;50.720;6.912;2022-11-25T02:32:51;99633.16;;;7.40;100.00
17072;BME280;7731;50.720;6.912;2022-11-25T02:35:33;99638.13;;;7.43;100.00
17072;BME280;7731;50.720;6.912;2022-11-25T02:38:08;99643.09;;;7.27;100.00
17072;BME280;7731;50.720;6.912;2022-11-25T02:40:48;99650.13;;;7.22;100.00
17072;BME280;7731;50.720;6.912;2022-11-25T02:43:21;99650.72;;;7.28;100.00
17072;BME280;7731;50.720;6.912;2022-11-25T02:46:02;99642.25;;;7.26;100.00
17072;BME280;7731;50.720;6.912;2022-11-25T02:48:39;99639.63;;;7.09;100.00
17072;BME280;7731;50.720;6.912;2022-11-25T02:51:33;99627.72;;;7.08;100.00
17072;BME280;7731;50.720;6.912;2022-11-25T02:54:05;99629.13;;;7.15;100.00
17072;BME280;7731;50.720;6.912;2022-11-25T02:56:39;99632.84;;;7.08;100.00
17072;BME280;7731;50.720;6.912;2022-11-25T02:59:16;99634.97;;;6.98;100.00
17072;BME280;7731;50.720;6.912;2022-11-25T03:01:48;99639.63;;;7.09;100.00
17072;BME280;7731;50.720;6.912;2022-11-25T03:04:18;99640.28;;;6.93;100.00
17072;BME280;7731;50.720;6.912;2022-11-25T03:06:51;99633.38;;;6.95;100.00
17072;BME280;7731;50.720;6.912;2022-11-25T03:09:23;99632.84;;;7.08;100.00
17072;BME280;7731;50.720;6.912;2022-11-25T03:12:01;99632.41;;;6.98;100.00
17072;BME280;7731;50.720;6.912;2022-11-25T03:14:44;99619.25;;;7.07;100.00
17072;BME280;7731;50.720;6.912;2022-11-25T03:17:15;99611.59;;;7.07;100.00
17072;BME280;7731;50.720;6.912;2022-11-25T03:19:45;99615.59;;;7.13;100.00
17072;BME280;7731;50.720;6.912;2022-11-25T03:22:17;99624.50;;;7.23;100.00
17072;BME280;7731;50.720;6.912;2022-11-25T03:24:50;99630.66;;;7.19;100.00
17072;BME280;7731;50.720;6.912;2022-11-25T03:27:26;99629.75;;;7.20;100.00
17072;BME280;7731;50.720;6.912;2022-11-25T03:29:56;99622.88;;;7.22;100.00
17072;BME280;7731;50.720;6.912;2022-11-25T03:32:27;99638.47;;;7.16;100.00
17072;BME280;7731;50.720;6.912;2022-11-25T03:35:00;99633.16;;;7.21;100.00
17072;BME280;7731;50.720;6.912;2022-11-25T03:37:30;99641.63;;;7.21;100.00
17072;BME280;7731;50.720;6.912;2022-11-25T03:40:02;99646.00;;;7.19;100.00
17072;BME280;7731;50.720;6.912;2022-11-25T03:42:38;99661.72;;;7.10;100.00
17072;BME280;7731;50.720;6.912;2022-11-25T03:45:15;99663.63;;;7.05;100.00
17072;BME280;7731;50.720;6.912;2022-11-25T03:47:47;99676.78;;;7.16;100.00
17072;BME280;7731;50.720;6.912;2022-11-25T03:50:17;99674.28;;;7.14;100.00
17072;BME280;7731;50.720;6.912;2022-11-25T03:52:49;99673.91;;;7.24;100.00
17072;BME280;7731;50.720;6.912;2022-11-25T03:55:19;99675.13;;;7.15;100.00
17072;BME280;7731;50.720;6.912;2022-11-25T03:57:55;99672.91;;;7.26;100.00
17072;BME280;7731;50.720;6.912;2022-11-25T04:00:28;99685.44;;;7.32;100.00
17072;BME280;7731;50.720;6.912;2022-11-25T04:02:59;99680.38;;;7.31;100.00
17072;BME280;7731;50.720;6.912;2022-11-25T04:05:32;99678.63;;;7.52;100.00
17072;BME280;7731;50.720;6.912;2022-11-25T04:08:03;99671.03;;;7.50;100.00
17072;BME280;7731;50.720;6.912;2022-11-25T04:10:36;99676.91;;;7.53;100.00
17072;BME280;7731;50.720;6.912;2022-11-25T04:13:10;99677.88;;;7.50;100.00
17072;BME280;7731;50.720;6.912;2022-11-25T04:15:43;99692.72;;;7.42;100.00
17072;BME280;7731;50.720;6.912;2022-11-25T04:18:16;99694.22;;;7.46;100.00
17072;BME280;7731;50.720;6.912;2022-11-25T04:20:55;99693.28;;;7.67;100.00
17072;BME280;7731;50.720;6.912;2022-11-25T04:23:26;99698.13;;;7.74;100.00
17072;BME280;7731;50.720;6.912;2022-11-25T04:26:03;99691.34;;;7.54;100.00
17072;BME280;7731;50.720;6.912;2022-11-25T04:28:36;99699.50;;;7.62;100.00
17072;BME280;7731;50.720;6.912;2022-11-25T04:31:07;99693.28;;;7.67;100.00
17072;BME280;7731;50.720;6.912;2022-11-25T04:33:38;99696.31;;;7.57;100.00
17072;BME280;7731;50.720;6.912;2022-11-25T04:36:09;99696.03;;;7.63;100.00
17072;BME280;7731;50.720;6.912;2022-11-25T04:38:39;99711.78;;;7.54;100.00
17072;BME280;7731;50.720;6.912;2022-11-25T04:41:13;99702.97;;;7.61;100.00
17072;BME280;7731;50.720;6.912;2022-11-25T04:43:46;99705.72;;;7.56;100.00
17072;BME280;7731;50.720;6.912;2022-11-25T04:46:19;99708.53;;;7.50;100.00
17072;BME280;7731;50.720;6.912;2022-11-25T04:48:50;99712.13;;;7.46;100.00
17072;BME280;7731;50.720;6.912;2022-11-25T04:51:21;99714.53;;;7.49;100.00
17072;BME280;7731;50.720;6.912;2022-11-25T04:53:51;99718.84;;;7.48;100.00
17072;BME280;7731;50.720;6.912;2022-11-25T04:56:22;99720.63;;;7.46;100.00
17072;BME280;7731;50.720;6.912;2022-11-25T04:58:55;99718.28;;;7.42;100.00
17072;BME280;7731;50.720;6.912;2022-11-25T05:01:40;99718.41;;;7.39;100.00
17072;BME280;7731;50.720;6.912;2022-11-25T05:04:10;99722.22;;;7.49;100.00
17072;BME280;7731;50.720;6.912;2022-11-25T05:06:40;99722.19;;;7.69;100.00
17072;BME280;7731;50.720;6.912;2022-11-25T05:09:13;99725.63;;;7.49;100.00
17072;BME280;7731;50.720;6.912;2022-11-25T05:11:47;99727.97;;;7.54;100.00
17072;BME280;7731;50.720;6.912;2022-11-25T05:14:21;99733.34;;;7.48;100.00
17072;BME280;7731;50.720;6.912;2022-11-25T05:16:52;99724.50;;;7.55;100.00
17072;BME280;7731;50.720;6.912;2022-11-25T05:19:23;99736.09;;;7.43;100.00
17072;BME280;7731;50.720;6.912;2022-11-25T05:21:54;99741.66;;;7.32;100.00
17072;BME280;7731;50.720;6.912;2022-11-25T05:24:25;99749.31;;;7.32;100.00
17072;BME280;7731;50.720;6.912;2022-11-25T05:27:10;99740.75;;;7.33;100.00
17072;BME280;7731;50.720;6.912;2022-11-25T05:29:51;99738.97;;;7.36;100.00
17072;BME280;7731;50.720;6.912;2022-11-25T05:32:22;99740.63;;;7.37;100.00
17072;BME280;7731;50.720;6.912;2022-11-25T05:34:53;99747.00;;;7.47;100.00
17072;BME280;7731;50.720;6.912;2022-11-25T05:37:23;99748.81;;;7.45;100.00
17072;BME280;7731;50.720;6.912;2022-11-25T05:39:53;99747.78;;;7.49;100.00
17072;BME280;7731;50.720;6.912;2022-11-25T05:42:29;99749.44;;;7.50;100.00
17072;BME280;7731;50.720;6.912;2022-11-25T05:45:02;99742.28;;;7.38;100.00
17072;BME280;7731;50.720;6.912;2022-11-25T05:47:37;99751.25;;;7.27;100.00
17072;BME280;7731;50.720;6.912;2022-11-25T05:50:07;99754.47;;;7.31;100.00
17072;BME280;7731;50.720;6.912;2022-11-25T05:52:38;99752.66;;;7.35;100.00
17072;BME280;7731;50.720;6.912;2022-11-25T05:55:11;99757.63;;;7.38;100.00
17072;BME280;7731;50.720;6.912;2022-11-25T05:57:41;99761.97;;;7.36;100.00
17072;BME280;7731;50.720;6.912;2022-11-25T06:00:18;99764.91;;;7.26;100.00
17072;BME280;7731;50.720;6.912;2022-11-25T06:02:53;99767.84;;;7.38;100.00
17072;BME280;7731;50.720;6.912;2022-11-25T06:05:24;99771.88;;;7.43;100.00
17072;BME280;7731;50.720;6.912;2022-11-25T06:07:54;99765.28;;;7.38;100.00
17072;BME280;7731;50.720;6.912;2022-11-25T06:10:27;99772.72;;;7.44;100.00
17072;BME280;7731;50.720;6.912;2022-11-25T06:12:57;99768.25;;;7.28;100.00
17072;BME280;7731;50.720;6.912;2022-11-25T06:15:32;99764.63;;;7.32;100.00
17072;BME280;7731;50.720;6.912;2022-11-25T06:18:02;99776.28;;;7.40;100.00
17072;BME280;7731;50.720;6.912;2022-11-25T06:20:33;99785.47;;;7.44;100.00
17072;BME280;7731;50.720;6.912;2022-11-25T06:23:04;99781.72;;;7.53;100.00
17072;BME280;7731;50.720;6.912;2022-11-25T06:25:35;99776.53;;;7.54;100.00
17072;BME280;7731;50.720;6.912;2022-11-25T06:28:09;99782.16;;;7.62;100.00
17072;BME280;7731;50.720;6.912;2022-11-25T06:30:44;99783.69;;;7.66;100.00
17072;BME280;7731;50.720;6.912;2022-11-25T06:33:14;99787.81;;;7.69;100.00
17072;BME280;7731;50.720;6.912;2022-11-25T06:35:49;99796.97;;;7.75;100.00
17072;BME280;7731;50.720;6.912;2022-11-25T06:38:27;99802.66;;;7.61;100.00
17072;BME280;7731;50.720;6.912;2022-11-25T06:41:06;99809.78;;;7.54;100.00
17072;BME280;7731;50.720;6.912;2022-11-25T06:43:36;99805.03;;;7.65;100.00
17072;BME280;7731;50.720;6.912;2022-11-25T06:46:13;99810.69;;;7.72;100.00
17072;BME280;7731;50.720;6.912;2022-11-25T06:49:01;99818.81;;;7.82;100.00
17072;BME280;7731;50.720;6.912;2022-11-25T06:51:40;99823.41;;;7.94;100.00
17072;BME280;7731;50.720;6.912;2022-11-25T06:54:11;99818.03;;;8.00;100.00
17072;BME280;7731;50.720;6.912;2022-11-25T06:56:41;99817.91;;;7.83;100.00
17072;BME280;7731;50.720;6.912;2022-11-25T06:59:18;99821.56;;;7.77;100.00
17072;BME280;7731;50.720;6.912;2022-11-25T07:01:51;99824.19;;;7.76;100.00
17072;BME280;7731;50.720;6.912;2022-11-25T07:04:21;99822.19;;;7.82;100.00
17072;BME280;7731;50.720;6.912;2022-11-25T07:06:51;99826.31;;;8.05;100.00
17072;BME280;7731;50.720;6.912;2022-11-25T07:09:24;99811.63;;;7.90;100.00
17072;BME280;7731;50.720;6.912;2022-11-25T07:11:55;99819.38;;;7.89;100.00
17072;BME280;7731;50.720;6.912;2022-11-25T07:14:31;99819.91;;;7.76;100.00
17072;BME280;7731;50.720;6.912;2022-11-25T07:17:08;99817.41;;;7.75;100.00
17072;BME280;7731;50.720;6.912;2022-11-25T07:19:41;99826.97;;;7.71;100.00
17072;BME280;7731;50.720;6.912;2022-11-25T07:22:11;99832.50;;;7.81;100.00
17072;BME280;7731;50.720;6.912;2022-11-25T07:24:42;99829.44;;;7.73;100.00
17072;BME280;7731;50.720;6.912;2022-11-25T07:27:12;99841.38;;;7.72;100.00
17072;BME280;7731;50.720;6.912;2022-11-25T07:29:45;99846.69;;;7.47;100.00
17072;BME280;7731;50.720;6.912;2022-11-25T07:32:41;99849.13;;;7.50;100.00
17072;BME280;7731;50.720;6.912;2022-11-25T07:35:12;99844.66;;;7.35;100.00
17072;BME280;7731;50.720;6.912;2022-11-25T07:37:45;99856.75;;;7.29;100.00
17072;BME280;7731;50.720;6.912;2022-11-25T07:40:20;99852.81;;;7.22;100.00
17072;BME280;7731;50.720;6.912;2022-11-25T07:42:58;99859.81;;;7.17;100.00
17072;BME280;7731;50.720;6.912;2022-11-25T07:45:40;99865.47;;;7.25;100.00
17072;BME280;7731;50.720;6.912;2022-11-25T07:48:16;99869.78;;;7.45;100.00
17072;BME280;7731;50.720;6.912;2022-11-25T07:50:46;99882.88;;;7.58;100.00
17072;BME280;7731;50.720;6.912;2022-11-25T07:53:16;99878.13;;;7.90;100.00
17072;BME280;7731;50.720;6.912;2022-11-25T07:55:54;99877.56;;;8.04;100.00
17072;BME280;7731;50.720;6.912;2022-11-25T07:58:26;99879.31;;;8.22;100.00
17072;BME280;7731;50.720;6.912;2022-11-25T08:01:01;99888.56;;;8.46;100.00
17072;BME280;7731;50.720;6.912;2022-11-25T08:03:35;99885.84;;;8.49;100.00
17072;BME280;7731;50.720;6.912;2022-11-25T08:06:10;99887.19;;;8.37;100.00
17072;BME280;7731;50.720;6.912;2022-11-25T08:08:46;99884.97;;;8.29;100.00
17072;BME280;7731;50.720;6.912;2022-11-25T08:11:21;99894.84;;;8.18;100.00
17072;BME280;7731;50.720;6.912;2022-11-25T08:13:52;99900.25;;;8.12;100.00
17072;BME280;7731;50.720;6.912;2022-11-25T08:16:27;99905.19;;;7.96;100.00
17072;BME280;7731;50.720;6.912;2022-11-25T08:19:05;99905.78;;;7.82;100.00
17072;BME280;7731;50.720;6.912;2022-11-25T08:21:47;99910.88;;;7.82;100.00
17072;BME280;7731;50.720;6.912;2022-11-25T08:24:19;99914.28;;;7.82;100.00
17072;BME280;7731;50.720;6.912;2022-11-25T08:26:50;99919.06;;;7.90;100.00
17072;BME280;7731;50.720;6.912;2022-11-25T08:29:24;99922.66;;;8.07;100.00
17072;BME280;7731;50.720;6.912;2022-11-25T08:31:58;99922.81;;;8.62;100.00
17072;BME280;7731;50.720;6.912;2022-11-25T08:34:37;99924.28;;;8.87;100.00
17072;BME280;7731;50.720;6.912;2022-11-25T08:37:07;99926.22;;;9.55;100.00
17072;BME280;7731;50.720;6.912;2022-11-25T08:39:37;99925.50;;;11.34;100.00
17072;BME280;7731;50.720;6.912;2022-11-25T08:42:19;99931.03;;;11.73;90.41
17072;BME280;7731;50.720;6.912;2022-11-25T08:44:53;99928.56;;;12.30;88.87
17072;BME280;7731;50.720;6.912;2022-11-25T08:47:24;99943.75;;;12.35;86.67
17072;BME280;7731;50.720;6.912;2022-11-25T08:49:57;99932.34;;;14.91;77.97
17072;BME280;7731;50.720;6.912;2022-11-25T08:52:27;99937.84;;;14.87;73.21
17072;BME280;7731;50.720;6.912;2022-11-25T08:54:57;99936.28;;;14.71;69.24
17072;BME280;7731;50.720;6.912;2022-11-25T08:57:28;99940.34;;;14.75;69.13
17072;BME280;7731;50.720;6.912;2022-11-25T09:00:06;99947.31;;;14.36;70.39
17072;BME280;7731;50.720;6.912;2022-11-25T09:02:37;99944.00;;;14.97;69.07
17072;BME280;7731;50.720;6.912;2022-11-25T09:05:12;99952.84;;;15.78;65.00
17072;BME280;7731;50.720;6.912;2022-11-25T09:07:43;99953.25;;;15.72;67.51
17072;BME280;7731;50.720;6.912;2022-11-25T09:10:15;99955.47;;;16.12;62.39
17072;BME280;7731;50.720;6.912;2022-11-25T09:12:48;99955.63;;;15.15;66.56
17072;BME280;7731;50.720;6.912;2022-11-25T09:15:18;99957.78;;;14.85;69.01
17072;BME280;7731;50.720;6.912;2022-11-25T09:17:56;99956.69;;;16.08;63.13
17072;BME280;7731;50.720;6.912;2022-11-25T09:20:42;99970.03;;;15.31;65.76
17072;BME280;7731;50.720;6.912;2022-11-25T09:23:14;99970.88;;;15.31;66.98
17072;BME280;7731;50.720;6.912;2022-11-25T09:25:50;99980.53;;;14.92;69.95
17072;BME280;7731;50.720;6.912;2022-11-25T09:28:23;99977.69;;;15.32;68.24
17072;BME280;7731;50.720;6.912;2022-11-25T09:30:56;99995.38;;;15.98;64.96
17072;BME280;7731;50.720;6.912;2022-11-25T09:33:26;99996.06;;;15.89;62.93
17072;BME280;7731;50.720;6.912;2022-11-25T09:36:05;99996.81;;;16.02;63.45
17072;BME280;7731;50.720;6.912;2022-11-25T09:38:35;99986.84;;;17.11;58.98
17072;BME280;7731;50.720;6.912;2022-11-25T09:41:24;100003.38;;;16.42;59.70
17072;BME280;7731;50.720;6.912;2022-11-25T09:44:25;100000.84;;;16.18;61.83
17072;BME280;7731;50.720;6.912;2022-11-25T09:47:26;100004.84;;;15.75;61.48
17072;BME280;7731;50.720;6.912;2022-11-25T09:50:21;100007.00;;;15.57;61.64
17072;BME280;7731;50.720;6.912;2022-11-25T09:53:10;100008.28;;;16.11;61.07
17072;BME280;7731;50.720;6.912;2022-11-25T09:55:54;100007.41;;;17.67;54.37
17072;BME280;7731;50.720;6.912;2022-11-25T09:58:34;100008.88;;;18.14;52.22
17072;BME280;7731;50.720;6.912;2022-11-25T10:01:16;100013.47;;;15.51;61.12
17072;BME280;7731;50.720;6.912;2022-11-25T10:03:55;100023.19;;;14.87;64.59
17072;BME280;7731;50.720;6.912;2022-11-25T10:06:35;100030.41;;;16.04;58.94
17072;BME280;7731;50.720;6.912;2022-11-25T10:09:16;100033.06;;;16.49;57.33
17072;BME280;7731;50.720;6.912;2022-11-25T10:11:51;100034.59;;;16.52;56.38
17072;BME280;7731;50.720;6.912;2022-11-25T10:14:31;100025.44;;;15.52;61.10
17072;BME280;7731;50.720;6.912;2022-11-25T10:17:12;100033.31;;;14.90;64.28
17072;BME280;7731;50.720;6.912;2022-11-25T10:19:57;100036.66;;;16.13;59.41
17072;BME280;7731;50.720;6.912;2022-11-25T10:22:35;100037.38;;;15.79;58.32
17072;BME280;7731;50.720;6.912;2022-11-25T10:25:18;100041.41;;;16.30;57.73
17072;BME280;7731;50.720;6.912;2022-11-25T10:27:55;100044.69;;;15.61;60.99
17072;BME280;7731;50.720;6.912;2022-11-25T10:30:40;100041.94;;;16.81;57.72
17072;BME280;7731;50.720;6.912;2022-11-25T10:33:19;100046.34;;;15.01;62.90
17072;BME280;7731;50.720;6.912;2022-11-25T10:35:54;100042.75;;;16.70;57.55
17072;BME280;7731;50.720;6.912;2022-11-25T10:38:33;100047.25;;;16.10;58.54
17072;BME280;7731;50.720;6.912;2022-11-25T10:41:14;100047.88;;;15.65;59.28
17072;BME280;7731;50.720;6.912;2022-11-25T10:43:46;100053.91;;;15.89;59.67
17072;BME280;7731;50.720;6.912;2022-11-25T10:46:36;100058.09;;;15.79;59.78
17072;BME280;7731;50.720;6.912;2022-11-25T10:49:36;100071.59;;;15.71;59.83
17072;BME280;7731;50.720;6.912;2022-11-25T10:52:22;100071.72;;;14.70;64.18
17072;BME280;7731;50.720;6.912;2022-11-25T10:55:12;100084.13;;;13.01;71.47
17072;BME280;7731;50.720;6.912;2022-11-25T10:57:52;100079.09;;;13.83;70.31
17072;BME280;7731;50.720;6.912;2022-11-25T11:00:32;100084.53;;;14.06;68.17
17072;BME280;7731;50.720;6.912;2022-11-25T11:03:24;100083.50;;;13.54;72.82
17072;BME280;7731;50.720;6.912;2022-11-25T11:05:58;100089.28;;;13.72;72.21
17072;BME280;7731;50.720;6.912;2022-11-25T11:08:37;100095.44;;;14.50;69.45
17072;BME280;7731;50.720;6.912;2022-11-25T11:11:17;100097.41;;;15.23;63.71
17072;BME280;7731;50.720;6.912;2022-11-25T11:14:11;100095.41;;;14.64;67.02
17072;BME280;7731;50.720;6.912;2022-11-25T11:16:53;100099.28;;;15.58;63.58
17072;BME280;7731;50.720;6.912;2022-11-25T11:19:27;100107.44;;;15.28;61.88
17072;BME280;7731;50.720;6.912;2022-11-25T11:22:16;100106.09;;;15.35;62.86
17072;BME280;7731;50.720;6.912;2022-11-25T11:24:46;100111.19;;;14.06;67.27
17072;BME280;7731;50.720;6.912;2022-11-25T11:27:21;100110.69;;;14.80;65.88
17072;BME280;7731;50.720;6.912;2022-11-25T11:30:09;100119.84;;;13.51;69.69
17072;BME280;7731;50.720;6.912;2022-11-25T11:32:58;100115.88;;;13.87;70.21
17072;BME280;7731;50.720;6.912;2022-11-25T11:35:53;100112.03;;;13.80;71.50
17072;BME280;7731;50.720;6.912;2022-11-25T11:38:34;100118.84;;;14.08;69.93
17072;BME280;7731;50.720;6.912;2022-11-25T11:41:24;100122.66;;;14.42;68.17
17072;BME280;7731;50.720;6.912;2022-11-25T11:44:12;100123.69;;;14.00;70.45
17072;BME280;7731;50.720;6.912;2022-11-25T11:47:15;100125.84;;;13.93;68.98
17072;BME280;7731;50.720;6.912;2022-11-25T11:50:24;100134.41;;;13.37;71.11
17072;BME280;7731;50.720;6.912;2022-11-25T11:53:08;100129.34;;;13.21;71.85
17072;BME280;7731;50.720;6.912;2022-11-25T11:55:53;100140.50;;;12.93;74.32
17072;BME280;7731;50.720;6.912;2022-11-25T11:59:05;100141.13;;;12.97;74.51
17072;BME280;7731;50.720;6.912;2022-11-25T12:02:10;100143.47;;;12.57;77.78
17072;BME280;7731;50.720;6.912;2022-11-25T12:04:54;100148.19;;;12.64;77.22
17072;BME280;7731;50.720;6.912;2022-11-25T12:07:40;100156.13;;;12.45;77.80
17072;BME280;7731;50.720;6.912;2022-11-25T12:10:24;100156.13;;;11.99;80.32
17072;BME280;7731;50.720;6.912;2022-11-25T12:13:13;100157.59;;;11.87;81.32
17072;BME280;7731;50.720;6.912;2022-11-25T12:15:51;100162.59;;;12.06;81.29
17072;BME280;7731;50.720;6.912;2022-11-25T12:18:44;100158.34;;;11.89;81.29
17072;BME280;7731;50.720;6.912;2022-11-25T12:21:36;100169.16;;;11.80;82.44
17072;BME280;7731;50.720;6.912;2022-11-25T12:24:21;100165.75;;;11.95;83.82
17072;BME280;7731;50.720;6.912;2022-11-25T12:27:07;100163.34;;;11.76;83.47
17072;BME280;7731;50.720;6.912;2022-11-25T12:29:47;100172.19;;;11.55;83.19
17072;BME280;7731;50.720;6.912;2022-11-25T12:32:47;100175.00;;;11.50;85.16
17072;BME280;7731;50.720;6.912;2022-11-25T12:35:33;100175.06;;;11.33;85.26
17072;BME280;7731;50.720;6.912;2022-11-25T12:38:30;100177.13;;;11.59;85.44
17072;BME280;7731;50.720;6.912;2022-11-25T12:41:13;100176.94;;;11.78;83.27
17072;BME280;7731;50.720;6.912;2022-11-25T12:43:50;100172.81;;;12.08;82.70
17072;BME280;7731;50.720;6.912;2022-11-25T12:46:35;100191.97;;;11.70;82.20
17072;BME280;7731;50.720;6.912;2022-11-25T12:49:18;100194.53;;;12.34;76.17
17072;BME280;7731;50.720;6.912;2022-11-25T12:52:25;100189.63;;;12.76;75.64
17072;BME280;7731;50.720;6.912;2022-11-25T12:55:12;100196.56;;;12.29;78.41
17072;BME280;7731;50.720;6.912;2022-11-25T12:58:27;100195.59;;;12.00;78.16
17072;BME280;7731;50.720;6.912;2022-11-25T13:01:35;100199.22;;;11.79;78.92
17072;BME280;7731;50.720;6.912;2022-11-25T13:04:47;100208.44;;;11.50;80.98
17072;BME280;7731;50.720;6.912;2022-11-25T13:08:05;100211.09;;;11.49;80.30
17072;BME280;7731;50.720;6.912;2022-11-25T13:11:12;100212.50;;;11.72;80.54
17072;BME280;7731;50.720;6.912;2022-11-25T13:13:54;100220.97;;;11.56;80.04
17072;BME280;7731;50.720;6.912;2022-11-25T13:16:32;100224.81;;;11.32;80.26
17072;BME280;7731;50.720;6.912;2022-11-25T13:19:08;100226.06;;;11.07;82.01
17072;BME280;7731;50.720;6.912;2022-11-25T13:21:58;100230.16;;;10.76;82.66
17072;BME280;7731;50.720;6.912;2022-11-25T13:24:37;100232.88;;;11.08;83.07
17072;BME280;7731;50.720;6.912;2022-11-25T13:27:29;100223.16;;;10.80;83.65
17072;BME280;7731;50.720;6.912;2022-11-25T13:30:03;100233.44;;;10.80;84.81
17072;BME280;7731;50.720;6.912;2022-11-25T13:32:40;100234.41;;;10.77;84.90
17072;BME280;7731;50.720;6.912;2022-11-25T13:35:49;100231.38;;;10.69;85.55
17072;BME280;7731;50.720;6.912;2022-11-25T13:38:56;100237.28;;;10.71;85.76
17072;BME280;7731;50.720;6.912;2022-11-25T13:41:57;100241.50;;;10.89;86.80
17072;BME280;7731;50.720;6.912;2022-11-25T13:44:48;100242.44;;;11.06;85.66
17072;BME280;7731;50.720;6.912;2022-11-25T13:47:31;100252.88;;;11.03;85.67
17072;BME280;7731;50.720;6.912;2022-11-25T13:50:04;100249.41;;;11.37;83.90
17072;BME280;7731;50.720;6.912;2022-11-25T13:52:48;100259.63;;;11.39;83.23
17072;BME280;7731;50.720;6.912;2022-11-25T13:55:33;100270.09;;;11.01;84.43
17072;BME280;7731;50.720;6.912;2022-11-25T13:58:21;100270.69;;;11.23;84.36
17072;BME280;7731;50.720;6.912;2022-11-25T14:01:21;100276.53;;;11.10;85.13
17072;BME280;7731;50.720;6.912;2022-11-25T14:04:02;100276.00;;;11.20;83.57